Time;durP1;ratioP1;P1;durP2;ratioP2;P2;SDS_P1;SDS_P2;PMS_P1;PMS_P2;Temp;Humidity;BMP_temperature;BMP_pressure;BME280_temperature;BME280_humidity;BME280_pressure;Samples;Min_cycle;Max_cycle;Signal;HPM_P1;HPM_P2
2022/07/18 00:01:30;;;;;;;5.70;3.75;;;15.10;99.90;;;;;;5058397;28;20051;-66
2022/07/18 00:03:55;;;;;;;7.70;4.07;;;15.20;99.90;;;;;;5052619;28;20171;-67
2022/07/18 00:06:21;;;;;;;7.22;4.30;;;15.00;99.90;;;;;;5051091;28;20128;-67
2022/07/18 00:08:47;;;;;;;13.45;4.75;;;15.20;99.90;;;;;;5056248;28;20072;-66
2022/07/18 00:11:12;;;;;;;6.18;3.67;;;15.10;99.90;;;;;;5048824;28;20502;-66
2022/07/18 00:13:38;;;;;;;5.65;3.22;;;15.20;99.90;;;;;;5052989;28;20072;-65
2022/07/18 00:16:04;;;;;;;8.75;3.65;;;15.20;99.90;;;;;;5051306;28;20064;-66
2022/07/18 00:18:29;;;;;;;7.22;4.50;;;15.10;99.90;;;;;;5052470;28;20037;-66
2022/07/18 00:20:55;;;;;;;5.15;3.20;;;15.00;99.90;;;;;;5055527;28;20048;-66
2022/07/18 00:23:21;;;;;;;5.05;4.03;;;14.90;99.90;;;;;;5052897;28;20124;-66
2022/07/18 00:25:46;;;;;;;6.90;3.90;;;15.10;99.90;;;;;;5054335;28;20059;-65
2022/07/18 00:28:12;;;;;;;5.13;3.88;;;;;;;;;;5051497;28;20051;-65
2022/07/18 00:30:39;;;;;;;5.85;4.03;;;14.90;99.90;;;;;;5047253;28;20045;-66
2022/07/18 00:33:05;;;;;;;4.85;3.40;;;15.10;99.90;;;;;;5053866;28;20044;-66
2022/07/18 00:35:30;;;;;;;5.28;3.33;;;15.00;99.90;;;;;;5050640;28;20041;-66
2022/07/18 00:37:56;;;;;;;5.55;3.90;;;15.10;99.90;;;;;;5058321;28;20041;-66
2022/07/18 00:40:21;;;;;;;5.55;3.65;;;14.90;99.90;;;;;;5053154;28;20052;-66
2022/07/18 00:42:47;;;;;;;4.68;3.55;;;14.90;99.90;;;;;;5052203;28;20086;-66
2022/07/18 00:45:13;;;;;;;9.18;5.30;;;15.00;99.90;;;;;;5050973;28;20086;-66
2022/07/18 00:47:39;;;;;;;8.85;4.88;;;15.10;99.90;;;;;;5057404;28;20040;-66
2022/07/18 00:50:07;;;;;;;8.68;5.28;;;15.50;99.90;;;;;;5055838;28;20033;-66
2022/07/18 00:52:33;;;;;;;9.00;5.32;;;15.40;99.90;;;;;;5054850;28;20064;-66
2022/07/18 00:54:59;;;;;;;4.70;3.63;;;15.60;99.90;;;;;;5056982;28;20049;-66
2022/07/18 00:57:25;;;;;;;6.47;3.90;;;15.40;99.90;;;;;;5051576;28;20049;-66
2022/07/18 01:02:36;;;;;;;6.68;4.05;;;15.20;99.90;;;;;;5051821;28;20045;-67
2022/07/18 01:05:04;;;;;;;6.65;3.13;;;15.20;99.90;;;;;;5050839;28;20036;-64
2022/07/18 01:07:30;;;;;;;6.40;3.58;;;15.10;99.90;;;;;;5050456;28;20043;-66
2022/07/18 01:09:55;;;;;;;5.03;3.33;;;14.70;99.90;;;;;;5060605;28;20040;-66
2022/07/18 01:12:21;;;;;;;6.55;4.03;;;14.80;99.90;;;;;;5056213;28;20090;-66
2022/07/18 01:14:47;;;;;;;6.85;4.43;;;14.70;99.90;;;;;;5056040;28;20051;-66
2022/07/18 01:17:18;;;;;;;7.75;4.57;;;14.90;99.90;;;;;;5046280;28;20198;-66
2022/07/18 01:19:44;;;;;;;7.43;4.55;;;14.80;99.90;;;;;;5050270;28;20128;-66
2022/07/18 01:22:11;;;;;;;7.93;5.03;;;15.10;99.90;;;;;;5044152;28;20402;-66
2022/07/18 01:24:39;;;;;;;7.28;4.70;;;15.20;99.90;;;;;;5048276;28;20125;-66
2022/07/18 01:27:05;;;;;;;8.40;5.22;;;15.30;99.90;;;;;;5051091;28;20055;-66
2022/07/18 01:29:30;;;;;;;9.88;5.93;;;15.40;99.90;;;;;;5049997;28;20033;-66
2022/07/18 01:31:56;;;;;;;10.52;4.88;;;15.60;99.90;;;;;;5043808;28;20450;-66
2022/07/18 01:34:22;;;;;;;7.88;4.93;;;15.50;99.90;;;;;;5045197;28;20038;-66
2022/07/18 01:36:48;;;;;;;9.05;5.47;;;15.60;99.90;;;;;;5039714;28;20419;-66
2022/07/18 01:39:14;;;;;;;9.88;4.85;;;15.50;99.90;;;;;;5049095;28;20047;-66
2022/07/18 01:41:40;;;;;;;9.18;4.82;;;15.60;99.90;;;;;;5042239;28;20033;-66
2022/07/18 01:44:06;;;;;;;9.15;5.10;;;15.50;99.90;;;;;;5046884;28;20116;-66
2022/07/18 01:46:32;;;;;;;10.18;5.18;;;15.60;99.90;;;;;;5044351;28;20136;-66
2022/07/18 01:48:58;;;;;;;8.32;5.13;;;16.90;99.90;;;;;;5045164;28;20519;-66
2022/07/18 01:51:23;;;;;;;10.52;5.50;;;15.80;99.90;;;;;;5049904;28;20087;-66
2022/07/18 01:53:59;;;;;;;9.00;4.85;;;15.80;99.90;;;;;;5041243;28;20040;-65
2022/07/18 01:56:25;;;;;;;11.23;5.38;;;15.70;99.90;;;;;;5045628;28;20081;-63
2022/07/18 01:58:50;;;;;;;10.88;5.75;;;15.70;99.90;;;;;;5050611;28;20056;-66
2022/07/18 02:01:16;;;;;;;9.32;4.95;;;15.70;99.90;;;;;;5050497;28;20407;-66
2022/07/18 02:03:42;;;;;;;10.90;5.60;;;15.70;99.90;;;;;;5043304;28;20037;-66
2022/07/18 02:06:07;;;;;;;10.52;5.55;;;15.60;99.90;;;;;;5046804;28;20119;-66
2022/07/18 02:08:33;;;;;;;6.97;4.30;;;15.70;99.90;;;;;;5048793;28;20036;-66
2022/07/18 02:10:58;;;;;;;9.38;5.70;;;15.40;99.90;;;;;;5045548;28;20045;-64
2022/07/18 02:13:24;;;;;;;11.43;5.65;;;15.30;99.90;;;;;;5043601;28;20407;-66
2022/07/18 02:15:50;;;;;;;8.73;5.60;;;15.40;99.90;;;;;;5040965;28;20029;-66
2022/07/18 02:18:16;;;;;;;9.48;6.40;;;15.60;99.90;;;;;;5045231;28;20045;-66
2022/07/18 02:20:42;;;;;;;11.45;6.38;;;15.50;99.90;;;;;;5049870;28;20575;-66
2022/07/18 02:23:07;;;;;;;8.45;5.65;;;15.60;99.90;;;;;;5045758;28;20483;-66
2022/07/18 02:25:34;;;;;;;8.05;5.63;;;15.50;99.90;;;;;;5048975;28;20495;-66
2022/07/18 02:27:59;;;;;;;11.02;5.40;;;15.70;99.90;;;;;;5050455;28;20497;-64
2022/07/18 02:30:25;;;;;;;10.88;5.82;;;15.60;99.90;;;;;;5046043;28;20025;-66
2022/07/18 02:32:51;;;;;;;10.38;5.95;;;15.70;99.90;;;;;;5044462;28;20127;-65
2022/07/18 02:35:16;;;;;;;11.00;6.07;;;15.50;99.90;;;;;;5050033;28;20065;-65
2022/07/18 02:37:42;;;;;;;10.52;5.18;;;15.60;99.90;;;;;;5043985;28;20064;-66
2022/07/18 02:40:10;;;;;;;9.48;6.13;;;15.20;99.90;;;;;;5047396;28;20045;-66
2022/07/18 02:42:36;;;;;;;8.57;5.63;;;15.40;99.90;;;;;;5054559;28;20064;-66
2022/07/18 02:45:04;;;;;;;9.95;5.45;;;15.50;99.90;;;;;;5050223;28;20115;-66
2022/07/18 02:47:29;;;;;;;12.85;5.72;;;15.50;99.90;;;;;;5051644;28;20064;-66
2022/07/18 02:49:55;;;;;;;10.43;6.28;;;15.50;99.90;;;;;;5050605;28;20472;-64
2022/07/18 02:52:21;;;;;;;11.35;5.68;;;15.40;99.90;;;;;;5049162;28;20098;-66
2022/07/18 02:54:49;;;;;;;8.88;6.25;;;15.30;99.90;;;;;;5050575;28;20152;-66
2022/07/18 02:57:14;;;;;;;8.80;5.80;;;15.50;99.90;;;;;;5046743;28;20053;-67
2022/07/18 02:59:40;;;;;;;6.45;5.05;;;15.10;99.90;;;;;;5048779;28;20048;-66
2022/07/18 03:02:06;;;;;;;8.25;5.05;;;15.10;99.90;;;;;;5052360;28;20123;-66
2022/07/18 03:04:32;;;;;;;6.90;4.88;;;14.80;99.90;;;;;;5051640;28;20060;-66
2022/07/18 03:06:57;;;;;;;9.35;4.88;;;14.90;99.90;;;;;;5050201;28;20036;-66
2022/07/18 03:09:26;;;;;;;8.15;5.25;;;14.80;99.90;;;;;;5047755;28;20033;-66
2022/07/18 03:11:54;;;;;;;9.93;5.07;;;14.60;99.90;;;;;;5050382;28;20040;-65
2022/07/18 03:14:19;;;;;;;10.82;6.22;;;14.70;99.90;;;;;;5052375;28;20044;-64
2022/07/18 03:16:45;;;;;;;9.50;6.05;;;14.80;99.90;;;;;;5051323;28;20040;-66
2022/07/18 03:19:11;;;;;;;9.60;5.40;;;14.90;99.90;;;;;;5048509;28;20037;-66
2022/07/18 03:21:36;;;;;;;9.10;5.80;;;15.00;99.90;;;;;;5051790;28;20055;-66
2022/07/18 03:24:02;;;;;;;12.02;6.03;;;14.80;99.90;;;;;;5050508;28;20111;-66
2022/07/18 03:26:27;;;;;;;11.60;6.53;;;14.80;99.90;;;;;;5049066;28;20033;-66
2022/07/18 03:28:53;;;;;;;10.00;6.32;;;14.60;99.90;;;;;;5052246;28;20047;-66
2022/07/18 03:31:19;;;;;;;12.38;5.60;;;14.90;99.90;;;;;;5048624;28;20124;-66
2022/07/18 03:33:45;;;;;;;12.48;6.28;;;14.90;99.90;;;;;;5046341;28;20095;-66
2022/07/18 03:36:11;;;;;;;10.95;5.70;;;14.90;99.90;;;;;;5051298;28;20132;-66
2022/07/18 03:38:36;;;;;;;10.18;5.82;;;15.00;99.90;;;;;;5049303;28;20120;-66
2022/07/18 03:41:03;;;;;;;9.60;6.28;;;15.00;99.90;;;;;;5044807;28;20094;-65
2022/07/18 03:43:30;;;;;;;10.35;6.57;;;15.10;99.90;;;;;;5046317;28;20120;-66
2022/07/18 03:45:56;;;;;;;13.48;6.47;;;15.10;99.90;;;;;;5045802;28;20041;-65
2022/07/18 03:48:21;;;;;;;11.27;6.93;;;15.20;99.90;;;;;;5047711;28;20052;-65
2022/07/18 03:50:47;;;;;;;10.60;6.57;;;15.30;99.90;;;;;;5047859;28;20041;-66
2022/07/18 03:53:12;;;;;;;10.40;6.25;;;15.20;99.90;;;;;;5049509;28;20033;-66
2022/07/18 03:55:38;;;;;;;10.52;6.65;;;15.20;99.90;;;;;;5047151;28;20185;-66
2022/07/18 03:58:04;;;;;;;8.45;6.30;;;15.40;99.90;;;;;;5048896;28;20049;-66
2022/07/18 04:00:29;;;;;;;13.30;6.40;;;15.10;99.90;;;;;;5036069;28;20049;-66
2022/07/18 04:02:55;;;;;;;9.45;5.47;;;15.20;99.90;;;;;;5052235;28;20395;-66
2022/07/18 04:05:20;;;;;;;11.63;6.82;;;15.20;99.90;;;;;;5047113;28;20041;-66
2022/07/18 04:07:46;;;;;;;11.40;6.05;;;15.30;99.90;;;;;;5050461;28;20128;-66
2022/07/18 04:10:12;;;;;;;9.77;5.90;;;;;;;;;;5051455;28;20044;-64
2022/07/18 04:12:48;;;;;;;8.40;5.15;;;15.50;99.90;;;;;;5045567;28;20060;-66
2022/07/18 04:15:15;;;;;;;8.10;5.97;;;15.30;99.90;;;;;;5048027;28;20038;-66
2022/07/18 04:17:40;;;;;;;12.82;5.93;;;15.40;99.90;;;;;;5050259;28;20144;-65
2022/07/18 04:20:07;;;;;;;11.77;5.78;;;15.30;99.90;;;;;;5049933;28;20633;-66
2022/07/18 04:22:45;;;;;;;8.63;5.18;;;15.40;99.90;;;;;;5048012;28;20042;-66
2022/07/18 04:25:10;;;;;;;8.85;5.68;;;15.30;99.90;;;;;;5049312;28;20045;-66
2022/07/18 04:27:36;;;;;;;9.85;5.72;;;15.40;99.90;;;;;;5046463;28;20514;-66
2022/07/18 04:30:03;;;;;;;8.90;5.40;;;15.40;99.90;;;;;;5050106;28;20061;-65
2022/07/18 04:32:28;;;;;;;7.40;5.93;;;15.40;99.90;;;;;;5045080;28;20051;-66
2022/07/18 04:34:54;;;;;;;9.88;5.32;;;15.40;99.90;;;;;;5050504;28;20119;-66
2022/07/18 04:37:19;;;;;;;8.90;5.15;;;15.40;99.90;;;;;;5047313;28;20049;-66
2022/07/18 04:39:47;;;;;;;6.82;4.40;;;15.50;99.90;;;;;;5046411;28;20045;-66
2022/07/18 04:42:13;;;;;;;9.25;5.22;;;15.50;99.90;;;;;;5047018;28;20128;-66
2022/07/18 04:44:38;;;;;;;7.47;4.95;;;15.60;99.90;;;;;;5045925;28;20116;-66
2022/07/18 04:47:04;;;;;;;8.25;4.68;;;;;;;;;;5052194;28;20045;-66
2022/07/18 04:49:30;;;;;;;10.80;4.68;;;15.60;99.90;;;;;;5047225;28;20094;-65
2022/07/18 04:51:56;;;;;;;10.15;4.95;;;15.60;99.90;;;;;;5047335;28;20036;-65
2022/07/18 04:54:21;;;;;;;9.25;5.05;;;15.50;99.90;;;;;;5045729;28;20041;-66
2022/07/18 04:56:47;;;;;;;7.60;4.30;;;15.60;99.90;;;;;;5048853;28;20041;-66
2022/07/18 04:59:12;;;;;;;7.47;4.28;;;15.50;99.90;;;;;;5048899;28;20094;-65
2022/07/18 05:01:38;;;;;;;8.18;4.88;;;15.60;99.90;;;;;;5042563;28;20051;-66
2022/07/18 05:04:04;;;;;;;6.57;4.18;;;15.70;99.90;;;;;;5049753;28;20037;-66
2022/07/18 05:06:29;;;;;;;8.00;4.57;;;15.90;99.90;;;;;;5042441;28;20402;-66
2022/07/18 05:08:55;;;;;;;6.32;4.28;;;15.80;99.90;;;;;;5048901;28;20106;-66
2022/07/18 05:11:20;;;;;;;8.30;4.72;;;15.80;99.90;;;;;;5046029;28;20510;-66
2022/07/18 05:13:46;;;;;;;6.22;4.28;;;15.80;99.90;;;;;;5050433;28;20060;-63
2022/07/18 05:16:12;;;;;;;7.43;4.93;;;15.90;99.90;;;;;;5052079;28;20033;-66
2022/07/18 05:18:37;;;;;;;8.73;4.95;;;15.80;99.90;;;;;;5052204;28;20506;-66
2022/07/18 05:21:03;;;;;;;10.20;5.35;;;16.10;99.90;;;;;;5045899;28;20037;-66
2022/07/18 05:23:28;;;;;;;9.48;4.68;;;15.90;99.90;;;;;;5044164;28;20033;-66
2022/07/18 05:25:54;;;;;;;7.75;5.13;;;;;;;;;;5048209;28;20041;-65
2022/07/18 05:28:20;;;;;;;9.65;5.13;;;16.20;99.90;;;;;;5047102;28;20051;-66
2022/07/18 05:30:45;;;;;;;9.32;6.15;;;16.20;99.90;;;;;;5043861;28;20620;-66
2022/07/18 05:33:11;;;;;;;11.07;4.93;;;16.30;99.90;;;;;;5044246;28;20420;-66
2022/07/18 05:35:37;;;;;;;10.55;5.10;;;;;;;;;;5049541;28;20406;-64
2022/07/18 05:38:03;;;;;;;10.10;6.05;;;16.40;99.90;;;;;;5051366;28;20041;-66
2022/07/18 05:40:28;;;;;;;10.43;5.47;;;16.50;99.90;;;;;;5048029;28;20036;-66
2022/07/18 05:42:54;;;;;;;7.93;4.97;;;16.70;99.90;;;;;;5045784;28;20029;-66
2022/07/18 05:45:21;;;;;;;8.23;4.47;;;16.60;99.90;;;;;;5049169;28;20426;-66
2022/07/18 05:47:46;;;;;;;8.88;5.55;;;16.50;99.90;;;;;;5044074;28;20045;-66
2022/07/18 05:50:12;;;;;;;12.05;5.25;;;16.70;99.90;;;;;;5051803;28;20502;-64
2022/07/18 05:52:37;;;;;;;6.65;4.28;;;16.60;99.90;;;;;;5044058;28;20049;-66
2022/07/18 05:55:04;;;;;;;9.05;4.45;;;16.60;99.90;;;;;;5048294;28;20065;-66
2022/07/18 05:57:29;;;;;;;8.23;4.55;;;16.40;99.90;;;;;;5045918;28;20565;-66
2022/07/18 05:59:55;;;;;;;9.75;4.50;;;16.60;99.90;;;;;;5043954;28;20053;-66
2022/07/18 06:02:20;;;;;;;7.30;4.38;;;16.70;99.90;;;;;;5046898;28;20487;-63
2022/07/18 06:04:46;;;;;;;10.13;5.05;;;16.90;99.90;;;;;;5040473;28;20056;-66
2022/07/18 06:07:11;;;;;;;9.07;4.85;;;16.80;99.90;;;;;;5030592;28;20498;-66
2022/07/18 06:09:37;;;;;;;8.18;4.70;;;16.70;99.90;;;;;;5030944;28;20049;-66
2022/07/18 06:12:03;;;;;;;9.05;4.43;;;16.80;99.90;;;;;;5032102;28;20042;-66
2022/07/18 06:14:31;;;;;;;10.68;5.00;;;16.90;99.90;;;;;;5040759;28;20434;-65
2022/07/18 06:16:58;;;;;;;7.68;4.20;;;17.00;99.90;;;;;;5052427;28;20037;-66
2022/07/18 06:19:24;;;;;;;10.93;4.43;;;17.00;99.90;;;;;;5039067;28;20064;-66
2022/07/18 06:21:50;;;;;;;9.30;4.63;;;17.10;99.90;;;;;;5032174;28;20056;-66
2022/07/18 06:24:16;;;;;;;9.27;4.68;;;17.10;99.90;;;;;;5037688;28;20116;-66
2022/07/18 06:26:41;;;;;;;7.22;3.90;;;17.10;99.90;;;;;;5041898;28;20117;-65
2022/07/18 06:29:07;;;;;;;8.88;4.38;;;17.30;99.90;;;;;;5031837;28;20049;-65
2022/07/18 06:31:32;;;;;;;7.35;4.20;;;17.20;99.90;;;;;;5031064;28;20077;-66
2022/07/18 06:33:58;;;;;;;6.68;3.90;;;17.40;99.90;;;;;;5036116;28;20033;-66
2022/07/18 06:36:23;;;;;;;9.85;4.45;;;17.30;99.90;;;;;;5045856;28;20108;-66
2022/07/18 06:38:52;;;;;;;10.20;4.28;;;17.60;99.90;;;;;;5044340;28;20103;-66
2022/07/18 06:41:19;;;;;;;5.57;3.60;;;17.50;99.90;;;;;;5033359;28;20041;-66
2022/07/18 06:43:45;;;;;;;5.55;3.42;;;17.80;99.90;;;;;;5040954;28;20175;-66
2022/07/18 06:46:11;;;;;;;7.97;3.00;;;18.00;99.90;;;;;;5050457;28;20534;-66
2022/07/18 06:48:37;;;;;;;7.35;3.10;;;18.10;99.90;;;;;;5052098;28;20034;-66
2022/07/18 06:51:04;;;;;;;8.15;3.38;;;18.20;99.90;;;;;;5047760;28;20132;-65
2022/07/18 06:53:30;;;;;;;4.90;2.78;;;18.30;99.90;;;;;;5040165;28;20044;-65
2022/07/18 06:55:56;;;;;;;7.00;3.05;;;18.70;99.90;;;;;;5044510;28;20044;-65
2022/07/18 06:58:22;;;;;;;7.53;3.10;;;18.60;99.90;;;;;;5046575;28;20057;-66
2022/07/18 07:00:48;;;;;;;9.38;2.97;;;18.80;99.90;;;;;;5046246;28;20040;-68
2022/07/18 07:03:15;;;;;;;7.05;2.65;;;18.90;99.90;;;;;;5039136;28;20049;-63
2022/07/18 07:05:40;;;;;;;8.68;2.72;;;18.80;99.90;;;;;;5047275;28;20029;-66
2022/07/18 07:08:06;;;;;;;6.82;1.90;;;19.30;99.90;;;;;;5041218;28;20166;-68
2022/07/18 07:10:31;;;;;;;5.28;2.60;;;19.50;99.90;;;;;;5044610;28;20119;-64
2022/07/18 07:12:57;;;;;;;36.58;4.30;;;19.20;99.90;;;;;;5042241;28;20041;-65
2022/07/18 07:15:23;;;;;;;6.05;2.33;;;19.40;99.90;;;;;;5048204;28;20032;-64
2022/07/18 07:17:50;;;;;;;4.45;2.45;;;19.40;99.90;;;;;;5043281;28;20048;-68
2022/07/18 07:20:18;;;;;;;4.82;2.03;;;19.70;99.90;;;;;;5047723;28;20069;-66
2022/07/18 07:22:47;;;;;;;8.73;2.05;;;19.70;99.90;;;;;;5042790;28;21271;-66
2022/07/18 07:25:15;;;;;;;11.98;2.70;;;19.80;99.90;;;;;;5051803;28;20094;-66
2022/07/18 07:27:41;;;;;;;5.80;2.20;;;20.00;99.90;;;;;;5049352;28;20422;-68
2022/07/18 07:30:08;;;;;;;4.40;2.20;;;20.00;99.90;;;;;;5047001;28;20098;-69
2022/07/18 07:32:35;;;;;;;5.97;1.92;;;20.20;99.90;;;;;;5053103;28;20576;-69
2022/07/18 07:35:01;;;;;;;7.97;2.42;;;20.30;99.90;;;;;;5047218;28;20045;-68
2022/07/18 07:37:26;;;;;;;6.93;2.10;;;20.30;99.90;;;;;;5048966;28;20487;-69
2022/07/18 07:39:52;;;;;;;4.00;2.03;;;20.40;99.90;;;;;;5050309;28;20041;-68
2022/07/18 07:42:20;;;;;;;7.75;2.10;;;20.50;99.90;;;;;;5052284;28;20037;-68
2022/07/18 07:44:48;;;;;;;4.70;1.95;;;20.60;99.90;;;;;;5050666;28;20037;-67
2022/07/18 07:47:14;;;;;;;11.98;2.25;;;20.80;99.90;;;;;;5049880;28;20111;-68
2022/07/18 07:49:45;;;;;;;5.65;1.80;;;21.10;99.90;;;;;;5044344;28;20128;-68
2022/07/18 07:52:14;;;;;;;3.30;1.67;;;21.00;99.90;;;;;;5047837;28;20565;-68
2022/07/18 07:54:40;;;;;;;7.93;1.95;;;21.10;99.90;;;;;;5049903;28;20041;-65
2022/07/18 07:57:06;;;;;;;3.65;1.45;;;21.00;99.90;;;;;;5051170;28;20052;-66
2022/07/18 07:59:32;;;;;;;6.45;2.00;;;22.10;99.90;;;;;;5035865;28;20407;-66
2022/07/18 08:01:58;;;;;;;3.17;1.52;;;21.10;99.90;;;;;;5049102;28;20040;-66
2022/07/18 08:04:24;;;;;;;7.75;1.95;;;21.10;99.90;;;;;;5049455;28;20029;-66
2022/07/18 08:06:49;;;;;;;5.78;1.63;;;21.20;99.90;;;;;;5044436;28;20471;-66
2022/07/18 08:09:15;;;;;;;3.85;1.70;;;21.40;99.90;;;;;;5051827;28;20040;-66
2022/07/18 08:11:41;;;;;;;4.72;1.55;;;21.60;99.90;;;;;;5051510;28;20048;-66
2022/07/18 08:14:06;;;;;;;4.25;1.50;;;21.70;99.90;;;;;;5052487;28;20073;-66
2022/07/18 08:16:32;;;;;;;3.10;1.27;;;21.80;99.90;;;;;;5052070;28;20039;-64
2022/07/18 08:18:57;;;;;;;5.28;1.58;;;21.70;99.90;;;;;;5049294;28;20091;-64
2022/07/18 08:21:23;;;;;;;6.35;1.42;;;21.90;99.90;;;;;;5048135;28;20056;-64
2022/07/18 08:23:49;;;;;;;8.98;1.63;;;22.20;99.90;;;;;;5045985;28;20483;-64
2022/07/18 08:26:15;;;;;;;6.10;1.63;;;21.90;99.90;;;;;;5050830;28;20146;-64
2022/07/18 08:28:41;;;;;;;6.28;2.20;;;22.00;99.90;;;;;;5051018;28;20045;-64
2022/07/18 08:31:06;;;;;;;4.70;1.80;;;22.10;99.90;;;;;;5047874;28;20033;-64
2022/07/18 08:33:32;;;;;;;5.40;1.40;;;22.30;99.90;;;;;;5053158;28;20041;-64
2022/07/18 08:35:58;;;;;;;7.45;1.25;;;22.30;99.90;;;;;;5051445;28;20132;-64
2022/07/18 08:38:23;;;;;;;6.82;1.42;;;22.70;99.90;;;;;;5046467;28;20094;-66
2022/07/18 08:40:52;;;;;;;5.85;1.38;;;22.50;99.90;;;;;;5050630;28;20044;-66
2022/07/18 08:43:19;;;;;;;6.07;1.38;;;22.60;99.90;;;;;;5046406;28;20037;-65
2022/07/18 08:45:45;;;;;;;4.40;1.58;;;22.50;99.90;;;;;;5051419;28;20037;-66
2022/07/18 08:48:17;;;;;;;5.20;1.25;;;22.80;99.90;;;;;;5051431;28;20037;-66
2022/07/18 08:50:44;;;;;;;4.78;1.20;;;23.00;99.90;;;;;;5050932;28;20371;-66
2022/07/18 08:53:12;;;;;;;6.82;1.65;;;22.90;99.90;;;;;;5049882;28;20045;-66
2022/07/18 08:55:38;;;;;;;4.30;1.05;;;23.10;99.90;;;;;;5044929;28;20398;-66
2022/07/18 08:58:03;;;;;;;6.18;0.85;;;24.40;99.90;;;;;;5045853;28;20052;-66
2022/07/18 09:00:29;;;;;;;3.05;0.77;;;23.30;99.90;;;;;;5052031;28;20049;-66
2022/07/18 09:03:03;;;;;;;4.72;0.95;;;23.40;99.90;;;;;;5051760;28;20032;-66
2022/07/18 09:05:31;;;;;;;6.72;1.10;;;23.60;99.90;;;;;;5050959;28;20471;-66
2022/07/18 09:08:19;;;;;;;4.20;1.30;;;23.70;99.90;;;;;;5051643;28;20036;-66
2022/07/18 09:10:56;;;;;;;2.85;1.05;;;23.60;99.90;;;;;;5046527;28;20118;-66
2022/07/18 09:13:35;;;;;;;4.15;0.80;;;23.90;99.90;;;;;;5051132;28;20179;-66
2022/07/18 09:16:04;;;;;;;10.20;1.05;;;24.20;99.90;;;;;;5051115;28;20029;-66
2022/07/18 09:18:36;;;;;;;4.63;0.93;;;24.10;99.90;;;;;;5051256;28;20045;-66
2022/07/18 09:21:14;;;;;;;3.35;0.95;;;24.40;99.90;;;;;;5050818;28;20088;-66
2022/07/18 09:23:49;;;;;;;4.13;1.20;;;24.10;99.90;;;;;;5053146;28;20025;-66
2022/07/18 09:26:38;;;;;;;4.07;1.15;;;24.30;99.90;;;;;;5051955;28;20067;-66
2022/07/18 09:29:03;;;;;;;2.85;0.90;;;24.40;99.90;;;;;;5051326;28;20087;-66
2022/07/18 09:31:30;;;;;;;6.97;1.17;;;24.30;99.90;;;;;;5051076;28;20065;-66
2022/07/18 09:33:58;;;;;;;4.13;1.52;;;24.80;99.90;;;;;;5039164;28;20048;-66
2022/07/18 09:36:25;;;;;;;3.72;0.90;;;24.80;99.90;;;;;;5032902;28;20494;-66
2022/07/18 09:38:54;;;;;;;5.13;0.98;;;24.80;99.90;;;;;;5032777;28;20064;-66
2022/07/18 09:41:29;;;;;;;5.65;1.55;;;24.70;99.90;;;;;;5030895;28;20041;-66
2022/07/18 09:43:55;;;;;;;6.13;1.15;;;24.50;99.90;;;;;;5045162;28;20041;-66
2022/07/18 09:46:21;;;;;;;4.63;2.20;;;25.10;99.90;;;;;;5038880;28;20037;-66
2022/07/18 09:48:48;;;;;;;6.82;1.38;;;24.90;99.90;;;;;;5042747;28;20033;-66
2022/07/18 09:51:13;;;;;;;6.47;1.10;;;24.70;99.90;;;;;;5038489;28;20042;-66
2022/07/18 09:53:41;;;;;;;3.10;1.00;;;26.80;99.90;;;;;;5042313;28;20045;-66
2022/07/18 09:56:11;;;;;;;4.00;1.02;;;26.60;99.90;;;;;;5031455;28;20095;-66
2022/07/18 09:58:39;;;;;;;6.25;1.17;;;24.80;99.90;;;;;;5043623;28;20056;-66
2022/07/18 10:01:09;;;;;;;8.10;1.23;;;25.10;99.90;;;;;;5032660;28;20045;-66
2022/07/18 10:03:35;;;;;;;7.03;1.42;;;25.20;99.90;;;;;;5042561;28;20480;-66
2022/07/18 10:06:01;;;;;;;3.95;1.00;;;25.00;99.90;;;;;;5032425;28;20034;-66
2022/07/18 10:08:29;;;;;;;16.48;1.98;;;25.40;99.90;;;;;;5035491;28;20124;-66
2022/07/18 10:10:59;;;;;;;4.35;1.10;;;25.50;99.90;;;;;;5041587;28;20050;-66
2022/07/18 10:13:26;;;;;;;5.90;1.20;;;25.30;99.90;;;;;;5048209;28;20044;-66
2022/07/18 10:15:52;;;;;;;6.82;1.30;;;25.20;99.90;;;;;;5041864;28;20048;-66
2022/07/18 10:18:32;;;;;;;3.55;1.00;;;25.40;99.90;;;;;;5032232;28;20037;-66
2022/07/18 10:21:02;;;;;;;7.18;1.02;;;27.20;99.90;;;;;;5031054;28;20068;-66
2022/07/18 10:23:33;;;;;;;4.05;1.23;;;25.60;99.90;;;;;;5045222;28;20454;-66
2022/07/18 10:26:14;;;;;;;2.00;0.80;;;25.90;99.90;;;;;;5044173;28;20511;-66
2022/07/18 10:28:55;;;;;;;2.85;1.15;;;25.80;99.90;;;;;;5030840;28;20050;-66
2022/07/18 10:31:28;;;;;;;4.03;1.23;;;25.90;99.90;;;;;;5032483;28;20064;-66
2022/07/18 10:34:06;;;;;;;4.45;1.10;;;25.80;99.90;;;;;;5038334;28;20377;-66
2022/07/18 10:36:33;;;;;;;6.55;1.55;;;26.00;99.90;;;;;;5043674;28;20121;-66
2022/07/18 10:39:02;;;;;;;4.53;0.75;;;26.40;99.90;;;;;;5032244;28;20045;-66
2022/07/18 10:41:27;;;;;;;3.38;0.90;;;26.20;99.90;;;;;;5031939;28;20514;-66
2022/07/18 10:43:53;;;;;;;5.80;1.08;;;26.60;99.90;;;;;;5039823;28;20037;-66
2022/07/18 10:46:18;;;;;;;3.65;1.10;;;26.40;99.90;;;;;;5036308;28;20042;-66
2022/07/18 10:48:52;;;;;;;2.10;0.98;;;26.10;99.90;;;;;;5032193;28;20120;-66
2022/07/18 10:51:18;;;;;;;3.97;1.10;;;26.50;99.90;;;;;;5044787;28;20054;-66
2022/07/18 10:53:59;;;;;;;5.80;1.85;;;26.20;99.90;;;;;;5044575;28;20557;-66
2022/07/18 10:56:27;;;;;;;5.05;1.40;;;26.30;99.90;;;;;;5034624;28;20399;-66
2022/07/18 10:58:55;;;;;;;7.00;1.50;;;28.00;99.90;;;;;;5034137;28;20115;-66
2022/07/18 11:01:23;;;;;;;4.88;1.60;;;26.70;99.90;;;;;;5034567;28;20086;-67
2022/07/18 11:03:49;;;;;;;5.25;1.30;;;26.50;99.90;;;;;;5047304;28;20267;-66
2022/07/18 11:06:15;;;;;;;6.22;1.52;;;26.40;99.90;;;;;;5041666;28;20493;-67
2022/07/18 11:08:41;;;;;;;4.28;1.40;;;26.70;99.90;;;;;;5034378;28;20053;-66
2022/07/18 11:11:09;;;;;;;5.85;1.55;;;26.50;99.90;;;;;;5035779;28;20116;-66
2022/07/18 11:13:36;;;;;;;6.45;1.58;;;26.30;99.90;;;;;;5047710;28;20377;-66
2022/07/18 11:16:09;;;;;;;3.47;1.27;;;26.60;99.90;;;;;;5035737;28;20041;-66
2022/07/18 11:18:44;;;;;;;7.90;2.42;;;28.30;99.90;;;;;;5041950;28;20048;-66
2022/07/18 11:21:16;;;;;;;5.25;1.75;;;26.40;99.90;;;;;;5034161;28;20044;-66
2022/07/18 11:23:43;;;;;;;11.13;1.77;;;26.60;99.90;;;;;;5048509;28;20033;-66
2022/07/18 11:26:16;;;;;;;4.85;1.85;;;28.10;99.90;;;;;;5047683;28;20049;-66
2022/07/18 11:28:43;;;;;;;4.80;1.60;;;26.70;99.90;;;;;;5035151;28;20560;-66
2022/07/18 11:31:10;;;;;;;3.28;1.30;;;26.50;99.90;;;;;;5033849;28;20037;-66
2022/07/18 11:33:44;;;;;;;5.63;1.80;;;26.30;99.90;;;;;;5037645;28;20041;-66
2022/07/18 11:36:12;;;;;;;5.35;1.52;;;26.40;99.90;;;;;;5035231;28;20121;-66
2022/07/18 11:38:48;;;;;;;6.45;1.38;;;26.40;99.90;;;;;;5033969;28;20049;-67
2022/07/18 11:41:15;;;;;;;6.85;1.52;;;26.70;99.90;;;;;;5034776;28;20037;-67
2022/07/18 11:43:44;;;;;;;6.40;1.52;;;26.40;99.90;;;;;;5037244;28;20160;-67
2022/07/18 11:46:11;;;;;;;4.40;1.70;;;26.70;99.90;;;;;;5042091;28;20036;-66
2022/07/18 11:48:38;;;;;;;3.72;2.05;;;26.70;99.90;;;;;;5035316;28;20507;-66
2022/07/18 11:51:17;;;;;;;6.28;1.85;;;27.80;99.90;;;;;;5036598;28;20041;-67
2022/07/18 11:53:49;;;;;;;3.47;1.50;;;26.80;99.90;;;;;;5036859;28;20042;-66
2022/07/18 11:56:16;;;;;;;6.78;1.65;;;26.70;99.90;;;;;;5034449;28;20029;-66
2022/07/18 11:58:42;;;;;;;3.78;2.13;;;27.80;99.90;;;;;;5034455;28;20064;-66
2022/07/18 12:01:08;;;;;;;5.63;2.13;;;26.90;99.90;;;;;;5033354;28;20037;-66
2022/07/18 12:03:37;;;;;;;4.35;1.95;;;26.90;99.90;;;;;;5037271;28;20044;-66
2022/07/18 12:06:13;;;;;;;5.78;2.88;;;26.90;99.90;;;;;;5034663;28;20125;-67
2022/07/18 12:08:45;;;;;;;5.32;1.88;;;26.80;99.90;;;;;;5047107;28;20045;-66
2022/07/18 12:11:11;;;;;;;6.43;2.10;;;28.00;99.90;;;;;;5016700;28;20099;-66
2022/07/18 12:13:47;;;;;;;4.75;1.80;;;27.00;99.90;;;;;;5046115;28;20041;-66
2022/07/18 12:16:29;;;;;;;4.03;1.67;;;27.30;99.90;;;;;;5032898;28;20050;-66
2022/07/18 12:19:12;;;;;;;4.57;2.20;;;27.10;99.90;;;;;;5039689;28;20049;-66
2022/07/18 12:22:04;;;;;;;3.50;1.58;;;27.00;99.90;;;;;;5039552;28;20479;-66
2022/07/18 12:24:54;;;;;;;3.60;1.75;;;27.20;99.90;;;;;;5040097;28;20522;-66
2022/07/18 12:27:23;;;;;;;4.88;2.33;;;27.10;99.90;;;;;;5051134;28;20045;-66
2022/07/18 12:30:18;;;;;;;3.83;1.92;;;27.30;99.90;;;;;;5016410;28;20052;-66
2022/07/18 12:32:58;;;;;;;3.58;1.70;;;27.20;99.90;;;;;;5036057;28;20052;-66
2022/07/18 12:35:35;;;;;;;5.57;2.15;;;27.00;99.90;;;;;;5049443;28;20049;-67
2022/07/18 12:38:03;;;;;;;4.50;1.52;;;27.10;99.90;;;;;;5038533;28;20044;-66
2022/07/18 12:40:59;;;;;;;3.47;1.50;;;27.00;99.90;;;;;;5041842;28;20511;-66
2022/07/18 12:43:32;;;;;;;5.47;2.05;;;26.90;99.90;;;;;;5034146;28;20029;-66
2022/07/18 12:46:00;;;;;;;5.32;1.80;;;27.10;99.90;;;;;;5041732;28;20040;-66
2022/07/18 12:48:30;;;;;;;3.58;1.60;;;27.10;99.90;;;;;;5033792;28;20033;-66
2022/07/18 12:51:02;;;;;;;5.10;1.63;;;26.80;99.90;;;;;;5044124;28;20403;-66